Spaulding, California
Current Conditions -  °F | °C
As of 10:55 PM on Sunday 23 Nov 2014 (Local Time) from KAAT Reporting Station
Haze Haze  
Wind Chill: 24°   Ceiling: Unl
Heat Index: 24°   Visibility: 6mi
Dew Point: 21°   Wind: 0mph
Humidity: 88%   Direction: NA
Pressure: 30.37"   Gusts: NA
Location:  40.5172°N, 120.68°W
Report Text: KAAT 240655Z AUTO 00000KT 6SM BR CLR M04/M06 A3037 RMK AO2 SLP306 T10441061
Loading
Personal Weather Stations






























Interactive Weather Map New forecast layout! Learn more

10-Day Weather Forecast

Advertisements
Track Severe Weather on mobile